sensor_id;sensor_type;location;lat;lon;timestamp;P1;durP1;ratioP1;P2;durP2;ratioP2
56752;SDS011;42627;42.646;23.642;2023-12-20T00:00:18;39.60;;;16.13;;
56752;SDS011;42627;42.646;23.642;2023-12-20T00:02:19;37.33;;;18.38;;
56752;SDS011;42627;42.646;23.642;2023-12-20T00:04:23;33.78;;;16.67;;
56752;SDS011;42627;42.646;23.642;2023-12-20T00:06:33;42.33;;;17.00;;
56752;SDS011;42627;42.646;23.642;2023-12-20T00:08:34;49.70;;;19.48;;
56752;SDS011;42627;42.646;23.642;2023-12-20T00:10:35;48.97;;;18.38;;
56752;SDS011;42627;42.646;23.642;2023-12-20T00:12:36;43.95;;;17.77;;
56752;SDS011;42627;42.646;23.642;2023-12-20T00:14:37;39.80;;;17.20;;
56752;SDS011;42627;42.646;23.642;2023-12-20T00:16:38;38.40;;;15.38;;
56752;SDS011;42627;42.646;23.642;2023-12-20T00:18:39;38.65;;;17.92;;
56752;SDS011;42627;42.646;23.642;2023-12-20T00:20:49;50.30;;;18.52;;
56752;SDS011;42627;42.646;23.642;2023-12-20T00:22:50;39.22;;;17.00;;
56752;SDS011;42627;42.646;23.642;2023-12-20T00:24:51;38.63;;;17.30;;
56752;SDS011;42627;42.646;23.642;2023-12-20T00:26:52;37.90;;;17.65;;
56752;SDS011;42627;42.646;23.642;2023-12-20T00:28:54;41.40;;;18.70;;
56752;SDS011;42627;42.646;23.642;2023-12-20T00:31:00;37.42;;;16.52;;
56752;SDS011;42627;42.646;23.642;2023-12-20T00:33:10;40.22;;;17.48;;
56752;SDS011;42627;42.646;23.642;2023-12-20T00:35:27;38.28;;;18.95;;
56752;SDS011;42627;42.646;23.642;2023-12-20T00:37:28;30.88;;;17.05;;
56752;SDS011;42627;42.646;23.642;2023-12-20T00:39:29;56.42;;;21.27;;
56752;SDS011;42627;42.646;23.642;2023-12-20T00:41:30;49.97;;;21.08;;
56752;SDS011;42627;42.646;23.642;2023-12-20T00:43:31;54.85;;;22.40;;
56752;SDS011;42627;42.646;23.642;2023-12-20T00:45:32;45.22;;;19.33;;
56752;SDS011;42627;42.646;23.642;2023-12-20T00:47:33;43.60;;;15.95;;
56752;SDS011;42627;42.646;23.642;2023-12-20T00:49:43;52.47;;;19.10;;
56752;SDS011;42627;42.646;23.642;2023-12-20T00:51:44;66.22;;;20.38;;
56752;SDS011;42627;42.646;23.642;2023-12-20T00:53:46;63.22;;;19.90;;
56752;SDS011;42627;42.646;23.642;2023-12-20T00:55:49;48.08;;;18.40;;
56752;SDS011;42627;42.646;23.642;2023-12-20T00:57:50;55.78;;;20.33;;
56752;SDS011;42627;42.646;23.642;2023-12-20T01:00:01;60.58;;;21.98;;
56752;SDS011;42627;42.646;23.642;2023-12-20T01:02:11;61.03;;;19.85;;
56752;SDS011;42627;42.646;23.642;2023-12-20T01:04:40;48.45;;;17.83;;
56752;SDS011;42627;42.646;23.642;2023-12-20T01:06:41;52.85;;;16.92;;
56752;SDS011;42627;42.646;23.642;2023-12-20T01:08:42;54.20;;;18.58;;
56752;SDS011;42627;42.646;23.642;2023-12-20T01:10:43;45.13;;;16.77;;
56752;SDS011;42627;42.646;23.642;2023-12-20T01:12:44;47.42;;;18.08;;
56752;SDS011;42627;42.646;23.642;2023-12-20T01:14:45;33.97;;;13.63;;
56752;SDS011;42627;42.646;23.642;2023-12-20T01:16:46;42.35;;;14.40;;
56752;SDS011;42627;42.646;23.642;2023-12-20T01:18:48;40.72;;;15.73;;
56752;SDS011;42627;42.646;23.642;2023-12-20T01:21:01;52.75;;;17.02;;
56752;SDS011;42627;42.646;23.642;2023-12-20T01:23:03;46.97;;;18.27;;
56752;SDS011;42627;42.646;23.642;2023-12-20T01:25:04;34.60;;;14.80;;
56752;SDS011;42627;42.646;23.642;2023-12-20T01:27:05;35.97;;;14.77;;
56752;SDS011;42627;42.646;23.642;2023-12-20T01:29:06;37.28;;;13.68;;
56752;SDS011;42627;42.646;23.642;2023-12-20T01:31:08;29.88;;;12.38;;
56752;SDS011;42627;42.646;23.642;2023-12-20T01:33:18;82.30;;;31.38;;
56752;SDS011;42627;42.646;23.642;2023-12-20T01:35:45;37.85;;;16.17;;
56752;SDS011;42627;42.646;23.642;2023-12-20T01:37:46;34.22;;;11.98;;
56752;SDS011;42627;42.646;23.642;2023-12-20T01:39:47;34.35;;;12.43;;
56752;SDS011;42627;42.646;23.642;2023-12-20T01:41:48;37.45;;;12.68;;
56752;SDS011;42627;42.646;23.642;2023-12-20T01:43:49;40.00;;;12.10;;
56752;SDS011;42627;42.646;23.642;2023-12-20T01:45:50;31.55;;;12.13;;
56752;SDS011;42627;42.646;23.642;2023-12-20T01:47:52;35.22;;;13.15;;
56752;SDS011;42627;42.646;23.642;2023-12-20T01:50:03;41.67;;;14.75;;
56752;SDS011;42627;42.646;23.642;2023-12-20T01:52:04;39.92;;;13.40;;
56752;SDS011;42627;42.646;23.642;2023-12-20T01:54:06;40.40;;;12.77;;
56752;SDS011;42627;42.646;23.642;2023-12-20T01:56:07;33.05;;;11.63;;
56752;SDS011;42627;42.646;23.642;2023-12-20T01:58:09;36.80;;;13.77;;
56752;SDS011;42627;42.646;23.642;2023-12-20T02:00:12;40.78;;;13.40;;
56752;SDS011;42627;42.646;23.642;2023-12-20T02:04:26;32.75;;;11.70;;
56752;SDS011;42627;42.646;23.642;2023-12-20T02:06:30;34.83;;;13.10;;
56752;SDS011;42627;42.646;23.642;2023-12-20T02:08:31;32.08;;;13.88;;
56752;SDS011;42627;42.646;23.642;2023-12-20T02:10:32;45.80;;;15.00;;
56752;SDS011;42627;42.646;23.642;2023-12-20T02:12:33;43.97;;;15.55;;
56752;SDS011;42627;42.646;23.642;2023-12-20T02:14:35;61.35;;;21.35;;
56752;SDS011;42627;42.646;23.642;2023-12-20T02:16:36;51.50;;;18.40;;
56752;SDS011;42627;42.646;23.642;2023-12-20T02:20:48;36.40;;;15.07;;
56752;SDS011;42627;42.646;23.642;2023-12-20T02:22:49;38.60;;;14.52;;
56752;SDS011;42627;42.646;23.642;2023-12-20T02:24:50;34.55;;;13.73;;
56752;SDS011;42627;42.646;23.642;2023-12-20T02:26:51;23.65;;;11.30;;
56752;SDS011;42627;42.646;23.642;2023-12-20T02:28:52;22.55;;;9.80;;
56752;SDS011;42627;42.646;23.642;2023-12-20T02:30:53;23.33;;;8.95;;
56752;SDS011;42627;42.646;23.642;2023-12-20T02:32:54;24.08;;;9.43;;
56752;SDS011;42627;42.646;23.642;2023-12-20T02:34:57;28.05;;;9.32;;
56752;SDS011;42627;42.646;23.642;2023-12-20T02:36:58;29.40;;;9.32;;
56752;SDS011;42627;42.646;23.642;2023-12-20T02:39:00;25.10;;;8.48;;
56752;SDS011;42627;42.646;23.642;2023-12-20T02:41:01;26.42;;;9.55;;
56752;SDS011;42627;42.646;23.642;2023-12-20T02:43:02;21.55;;;9.40;;
56752;SDS011;42627;42.646;23.642;2023-12-20T02:45:03;31.77;;;10.05;;
56752;SDS011;42627;42.646;23.642;2023-12-20T02:47:04;23.67;;;10.15;;
56752;SDS011;42627;42.646;23.642;2023-12-20T02:49:14;25.20;;;9.85;;
56752;SDS011;42627;42.646;23.642;2023-12-20T02:51:15;30.85;;;11.48;;
56752;SDS011;42627;42.646;23.642;2023-12-20T02:53:16;24.35;;;10.13;;
56752;SDS011;42627;42.646;23.642;2023-12-20T02:55:17;24.77;;;11.00;;
56752;SDS011;42627;42.646;23.642;2023-12-20T02:57:18;34.42;;;10.23;;
56752;SDS011;42627;42.646;23.642;2023-12-20T02:59:20;26.02;;;11.43;;
56752;SDS011;42627;42.646;23.642;2023-12-20T03:01:21;18.48;;;8.57;;
56752;SDS011;42627;42.646;23.642;2023-12-20T03:03:22;25.88;;;9.23;;
56752;SDS011;42627;42.646;23.642;2023-12-20T03:05:32;28.65;;;10.02;;
56752;SDS011;42627;42.646;23.642;2023-12-20T03:07:33;26.50;;;10.52;;
56752;SDS011;42627;42.646;23.642;2023-12-20T03:09:34;28.27;;;10.48;;
56752;SDS011;42627;42.646;23.642;2023-12-20T03:11:35;26.90;;;9.95;;
56752;SDS011;42627;42.646;23.642;2023-12-20T03:13:36;33.80;;;11.32;;
56752;SDS011;42627;42.646;23.642;2023-12-20T03:20:43;20.15;;;9.70;;
56752;SDS011;42627;42.646;23.642;2023-12-20T03:22:44;32.65;;;10.13;;
56752;SDS011;42627;42.646;23.642;2023-12-20T03:24:45;25.85;;;9.95;;
56752;SDS011;42627;42.646;23.642;2023-12-20T03:26:46;29.15;;;10.80;;
56752;SDS011;42627;42.646;23.642;2023-12-20T03:28:47;24.95;;;9.05;;
56752;SDS011;42627;42.646;23.642;2023-12-20T03:30:49;33.90;;;11.07;;
56752;SDS011;42627;42.646;23.642;2023-12-20T03:32:50;23.02;;;9.77;;
56752;SDS011;42627;42.646;23.642;2023-12-20T03:35:00;25.83;;;10.63;;
56752;SDS011;42627;42.646;23.642;2023-12-20T03:37:01;21.75;;;9.98;;
56752;SDS011;42627;42.646;23.642;2023-12-20T03:39:02;20.67;;;8.90;;
56752;SDS011;42627;42.646;23.642;2023-12-20T03:41:04;23.92;;;10.00;;
56752;SDS011;42627;42.646;23.642;2023-12-20T03:43:05;39.55;;;12.20;;
56752;SDS011;42627;42.646;23.642;2023-12-20T03:47:47;29.25;;;10.85;;
56752;SDS011;42627;42.646;23.642;2023-12-20T03:49:50;35.13;;;11.40;;
56752;SDS011;42627;42.646;23.642;2023-12-20T03:51:54;31.00;;;11.60;;
56752;SDS011;42627;42.646;23.642;2023-12-20T03:53:55;28.08;;;11.10;;
56752;SDS011;42627;42.646;23.642;2023-12-20T03:55:56;21.15;;;10.23;;
56752;SDS011;42627;42.646;23.642;2023-12-20T03:57:57;27.25;;;10.90;;
56752;SDS011;42627;42.646;23.642;2023-12-20T03:59:58;25.33;;;12.57;;
56752;SDS011;42627;42.646;23.642;2023-12-20T04:01:59;26.92;;;11.65;;
56752;SDS011;42627;42.646;23.642;2023-12-20T04:04:09;29.63;;;13.18;;
56752;SDS011;42627;42.646;23.642;2023-12-20T04:06:11;24.73;;;10.85;;
56752;SDS011;42627;42.646;23.642;2023-12-20T04:08:16;27.05;;;11.55;;
56752;SDS011;42627;42.646;23.642;2023-12-20T04:10:17;25.65;;;10.82;;
56752;SDS011;42627;42.646;23.642;2023-12-20T04:12:19;29.95;;;12.52;;
56752;SDS011;42627;42.646;23.642;2023-12-20T04:14:28;35.08;;;13.55;;
56752;SDS011;42627;42.646;23.642;2023-12-20T04:16:44;35.95;;;13.50;;
56752;SDS011;42627;42.646;23.642;2023-12-20T04:18:55;41.22;;;14.40;;
56752;SDS011;42627;42.646;23.642;2023-12-20T04:20:56;31.52;;;12.82;;
56752;SDS011;42627;42.646;23.642;2023-12-20T04:22:57;47.08;;;15.57;;
56752;SDS011;42627;42.646;23.642;2023-12-20T04:24:58;49.28;;;15.63;;
56752;SDS011;42627;42.646;23.642;2023-12-20T04:26:59;40.78;;;16.67;;
56752;SDS011;42627;42.646;23.642;2023-12-20T04:29:00;45.38;;;17.85;;
56752;SDS011;42627;42.646;23.642;2023-12-20T04:31:01;41.13;;;16.45;;
56752;SDS011;42627;42.646;23.642;2023-12-20T04:33:02;37.35;;;17.40;;
56752;SDS011;42627;42.646;23.642;2023-12-20T04:35:04;38.20;;;17.55;;
56752;SDS011;42627;42.646;23.642;2023-12-20T04:37:05;38.95;;;16.02;;
56752;SDS011;42627;42.646;23.642;2023-12-20T04:39:06;32.60;;;12.93;;
56752;SDS011;42627;42.646;23.642;2023-12-20T04:41:07;36.50;;;15.40;;
56752;SDS011;42627;42.646;23.642;2023-12-20T04:43:08;38.47;;;13.27;;
56752;SDS011;42627;42.646;23.642;2023-12-20T04:45:09;38.22;;;14.00;;
56752;SDS011;42627;42.646;23.642;2023-12-20T04:47:13;31.30;;;13.55;;
56752;SDS011;42627;42.646;23.642;2023-12-20T04:49:14;33.38;;;14.02;;
56752;SDS011;42627;42.646;23.642;2023-12-20T04:51:15;36.45;;;15.77;;
56752;SDS011;42627;42.646;23.642;2023-12-20T04:53:16;25.48;;;12.00;;
56752;SDS011;42627;42.646;23.642;2023-12-20T04:55:17;35.80;;;13.32;;
56752;SDS011;42627;42.646;23.642;2023-12-20T04:57:18;42.60;;;14.20;;
56752;SDS011;42627;42.646;23.642;2023-12-20T04:59:19;38.35;;;14.10;;
56752;SDS011;42627;42.646;23.642;2023-12-20T05:01:20;39.08;;;15.40;;
56752;SDS011;42627;42.646;23.642;2023-12-20T05:03:30;32.63;;;15.60;;
56752;SDS011;42627;42.646;23.642;2023-12-20T05:05:31;35.45;;;15.18;;
56752;SDS011;42627;42.646;23.642;2023-12-20T05:07:33;41.80;;;15.13;;
56752;SDS011;42627;42.646;23.642;2023-12-20T05:09:34;33.88;;;15.40;;
56752;SDS011;42627;42.646;23.642;2023-12-20T05:11:35;45.50;;;16.38;;
56752;SDS011;42627;42.646;23.642;2023-12-20T05:13:45;57.00;;;20.15;;
56752;SDS011;42627;42.646;23.642;2023-12-20T05:15:58;39.53;;;18.05;;
56752;SDS011;42627;42.646;23.642;2023-12-20T05:18:08;43.20;;;16.08;;
56752;SDS011;42627;42.646;23.642;2023-12-20T05:20:09;49.83;;;18.67;;
56752;SDS011;42627;42.646;23.642;2023-12-20T05:22:10;53.30;;;19.70;;
56752;SDS011;42627;42.646;23.642;2023-12-20T05:24:11;46.80;;;17.77;;
56752;SDS011;42627;42.646;23.642;2023-12-20T05:26:12;49.83;;;19.50;;
56752;SDS011;42627;42.646;23.642;2023-12-20T05:28:13;56.13;;;20.02;;
56752;SDS011;42627;42.646;23.642;2023-12-20T05:30:14;47.05;;;18.85;;
56752;SDS011;42627;42.646;23.642;2023-12-20T05:32:16;61.05;;;21.55;;
56752;SDS011;42627;42.646;23.642;2023-12-20T05:34:26;48.45;;;20.83;;
56752;SDS011;42627;42.646;23.642;2023-12-20T05:36:27;61.47;;;20.73;;
56752;SDS011;42627;42.646;23.642;2023-12-20T05:38:28;44.80;;;18.85;;
56752;SDS011;42627;42.646;23.642;2023-12-20T05:40:29;50.80;;;17.83;;
56752;SDS011;42627;42.646;23.642;2023-12-20T05:42:30;50.60;;;19.27;;
56752;SDS011;42627;42.646;23.642;2023-12-20T05:47:12;44.72;;;17.45;;
56752;SDS011;42627;42.646;23.642;2023-12-20T05:49:19;39.28;;;15.30;;
56752;SDS011;42627;42.646;23.642;2023-12-20T05:51:21;53.58;;;16.73;;
56752;SDS011;42627;42.646;23.642;2023-12-20T05:53:22;47.78;;;18.52;;
56752;SDS011;42627;42.646;23.642;2023-12-20T05:55:23;40.17;;;16.38;;
56752;SDS011;42627;42.646;23.642;2023-12-20T05:57:24;35.25;;;14.73;;
56752;SDS011;42627;42.646;23.642;2023-12-20T05:59:26;51.78;;;15.88;;
56752;SDS011;42627;42.646;23.642;2023-12-20T06:01:27;52.55;;;16.83;;
56752;SDS011;42627;42.646;23.642;2023-12-20T06:03:28;56.42;;;21.85;;
56752;SDS011;42627;42.646;23.642;2023-12-20T06:05:29;53.10;;;20.65;;
56752;SDS011;42627;42.646;23.642;2023-12-20T06:07:30;40.22;;;16.73;;
56752;SDS011;42627;42.646;23.642;2023-12-20T06:09:31;49.05;;;17.50;;
56752;SDS011;42627;42.646;23.642;2023-12-20T06:11:32;52.22;;;16.80;;
56752;SDS011;42627;42.646;23.642;2023-12-20T06:13:33;33.67;;;14.23;;
56752;SDS011;42627;42.646;23.642;2023-12-20T06:15:35;40.08;;;14.13;;
56752;SDS011;42627;42.646;23.642;2023-12-20T06:19:47;42.47;;;16.15;;
56752;SDS011;42627;42.646;23.642;2023-12-20T06:21:48;50.15;;;16.48;;
56752;SDS011;42627;42.646;23.642;2023-12-20T06:23:49;79.28;;;21.35;;
56752;SDS011;42627;42.646;23.642;2023-12-20T06:25:50;59.60;;;21.70;;
56752;SDS011;42627;42.646;23.642;2023-12-20T06:27:51;41.58;;;17.23;;
56752;SDS011;42627;42.646;23.642;2023-12-20T06:29:52;51.35;;;19.73;;
56752;SDS011;42627;42.646;23.642;2023-12-20T06:31:56;53.30;;;19.15;;
56752;SDS011;42627;42.646;23.642;2023-12-20T06:34:15;45.85;;;17.08;;
56752;SDS011;42627;42.646;23.642;2023-12-20T06:36:23;44.90;;;17.42;;
56752;SDS011;42627;42.646;23.642;2023-12-20T06:38:42;35.92;;;15.25;;
56752;SDS011;42627;42.646;23.642;2023-12-20T06:40:43;37.13;;;16.45;;
56752;SDS011;42627;42.646;23.642;2023-12-20T06:42:44;52.15;;;22.02;;
56752;SDS011;42627;42.646;23.642;2023-12-20T06:44:45;52.45;;;21.90;;
56752;SDS011;42627;42.646;23.642;2023-12-20T06:46:49;54.80;;;23.15;;
56752;SDS011;42627;42.646;23.642;2023-12-20T06:48:50;74.30;;;25.92;;
56752;SDS011;42627;42.646;23.642;2023-12-20T06:50:51;92.43;;;37.95;;
56752;SDS011;42627;42.646;23.642;2023-12-20T06:53:04;82.90;;;34.15;;
56752;SDS011;42627;42.646;23.642;2023-12-20T06:55:16;59.75;;;27.25;;
56752;SDS011;42627;42.646;23.642;2023-12-20T06:57:20;68.22;;;27.23;;
56752;SDS011;42627;42.646;23.642;2023-12-20T07:01:48;89.43;;;30.88;;
56752;SDS011;42627;42.646;23.642;2023-12-20T07:03:59;73.35;;;27.65;;
56752;SDS011;42627;42.646;23.642;2023-12-20T07:06:15;62.47;;;25.67;;
56752;SDS011;42627;42.646;23.642;2023-12-20T07:08:26;85.63;;;29.63;;
56752;SDS011;42627;42.646;23.642;2023-12-20T07:10:27;43.05;;;21.02;;
56752;SDS011;42627;42.646;23.642;2023-12-20T07:12:28;40.25;;;18.95;;
56752;SDS011;42627;42.646;23.642;2023-12-20T07:14:30;78.63;;;22.33;;
56752;SDS011;42627;42.646;23.642;2023-12-20T07:16:31;48.58;;;18.08;;
56752;SDS011;42627;42.646;23.642;2023-12-20T07:18:32;51.67;;;15.80;;
56752;SDS011;42627;42.646;23.642;2023-12-20T07:20:33;57.00;;;16.98;;
56752;SDS011;42627;42.646;23.642;2023-12-20T07:22:43;40.55;;;15.50;;
56752;SDS011;42627;42.646;23.642;2023-12-20T07:24:44;34.75;;;14.88;;
56752;SDS011;42627;42.646;23.642;2023-12-20T07:26:46;71.60;;;28.73;;
56752;SDS011;42627;42.646;23.642;2023-12-20T07:28:47;66.80;;;29.85;;
56752;SDS011;42627;42.646;23.642;2023-12-20T07:30:48;51.30;;;24.25;;
56752;SDS011;42627;42.646;23.642;2023-12-20T07:32:54;45.58;;;18.48;;
56752;SDS011;42627;42.646;23.642;2023-12-20T07:35:11;48.03;;;17.45;;
56752;SDS011;42627;42.646;23.642;2023-12-20T07:39:22;35.38;;;13.52;;
56752;SDS011;42627;42.646;23.642;2023-12-20T07:41:23;26.08;;;11.05;;
56752;SDS011;42627;42.646;23.642;2023-12-20T07:43:24;36.85;;;14.35;;
56752;SDS011;42627;42.646;23.642;2023-12-20T07:45:25;50.60;;;16.27;;
56752;SDS011;42627;42.646;23.642;2023-12-20T07:47:26;41.28;;;16.90;;
56752;SDS011;42627;42.646;23.642;2023-12-20T07:49:27;42.88;;;14.07;;
56752;SDS011;42627;42.646;23.642;2023-12-20T07:51:28;44.47;;;16.33;;
56752;SDS011;42627;42.646;23.642;2023-12-20T07:53:29;51.42;;;21.05;;
56752;SDS011;42627;42.646;23.642;2023-12-20T07:55:30;50.53;;;19.85;;
56752;SDS011;42627;42.646;23.642;2023-12-20T07:57:31;49.33;;;20.10;;
56752;SDS011;42627;42.646;23.642;2023-12-20T07:59:32;48.80;;;21.42;;
56752;SDS011;42627;42.646;23.642;2023-12-20T08:01:33;44.85;;;18.73;;
56752;SDS011;42627;42.646;23.642;2023-12-20T08:03:34;38.83;;;16.75;;
56752;SDS011;42627;42.646;23.642;2023-12-20T08:05:36;43.17;;;16.88;;
56752;SDS011;42627;42.646;23.642;2023-12-20T08:07:54;36.22;;;14.68;;
56752;SDS011;42627;42.646;23.642;2023-12-20T08:09:55;50.20;;;16.77;;
56752;SDS011;42627;42.646;23.642;2023-12-20T08:11:57;44.70;;;16.65;;
56752;SDS011;42627;42.646;23.642;2023-12-20T08:13:59;46.00;;;15.98;;
56752;SDS011;42627;42.646;23.642;2023-12-20T08:16:00;48.50;;;16.48;;
56752;SDS011;42627;42.646;23.642;2023-12-20T08:18:08;44.15;;;17.33;;
56752;SDS011;42627;42.646;23.642;2023-12-20T08:20:47;54.22;;;20.20;;
56752;SDS011;42627;42.646;23.642;2023-12-20T08:22:55;55.90;;;22.23;;
56752;SDS011;42627;42.646;23.642;2023-12-20T08:24:59;53.47;;;21.92;;
56752;SDS011;42627;42.646;23.642;2023-12-20T08:27:01;53.92;;;22.40;;
56752;SDS011;42627;42.646;23.642;2023-12-20T08:29:02;60.95;;;20.65;;
56752;SDS011;42627;42.646;23.642;2023-12-20T08:31:03;70.90;;;26.48;;
56752;SDS011;42627;42.646;23.642;2023-12-20T08:33:04;58.88;;;22.50;;
56752;SDS011;42627;42.646;23.642;2023-12-20T08:35:07;57.97;;;22.77;;
56752;SDS011;42627;42.646;23.642;2023-12-20T08:37:10;62.72;;;23.65;;
56752;SDS011;42627;42.646;23.642;2023-12-20T08:39:14;68.40;;;22.33;;
56752;SDS011;42627;42.646;23.642;2023-12-20T08:41:16;71.32;;;26.55;;
56752;SDS011;42627;42.646;23.642;2023-12-20T08:43:17;71.45;;;25.92;;
56752;SDS011;42627;42.646;23.642;2023-12-20T08:45:18;61.38;;;22.63;;
56752;SDS011;42627;42.646;23.642;2023-12-20T08:47:24;55.80;;;22.13;;
56752;SDS011;42627;42.646;23.642;2023-12-20T08:49:34;50.95;;;17.40;;
56752;SDS011;42627;42.646;23.642;2023-12-20T08:51:44;44.38;;;17.48;;
56752;SDS011;42627;42.646;23.642;2023-12-20T08:53:46;40.70;;;17.52;;
56752;SDS011;42627;42.646;23.642;2023-12-20T08:55:47;46.10;;;17.10;;
56752;SDS011;42627;42.646;23.642;2023-12-20T08:57:48;39.75;;;16.40;;
56752;SDS011;42627;42.646;23.642;2023-12-20T08:59:50;44.40;;;17.88;;
56752;SDS011;42627;42.646;23.642;2023-12-20T09:01:52;54.17;;;18.35;;
56752;SDS011;42627;42.646;23.642;2023-12-20T09:03:54;53.88;;;20.05;;
56752;SDS011;42627;42.646;23.642;2023-12-20T09:05:55;56.03;;;20.30;;
56752;SDS011;42627;42.646;23.642;2023-12-20T09:07:59;58.58;;;18.13;;
56752;SDS011;42627;42.646;23.642;2023-12-20T09:10:03;67.97;;;22.23;;
56752;SDS011;42627;42.646;23.642;2023-12-20T09:12:05;67.38;;;23.10;;
56752;SDS011;42627;42.646;23.642;2023-12-20T09:14:06;66.15;;;23.27;;
56752;SDS011;42627;42.646;23.642;2023-12-20T09:16:07;70.18;;;25.38;;
56752;SDS011;42627;42.646;23.642;2023-12-20T09:18:08;81.63;;;27.88;;
56752;SDS011;42627;42.646;23.642;2023-12-20T09:20:09;69.10;;;24.40;;
56752;SDS011;42627;42.646;23.642;2023-12-20T09:22:12;54.55;;;19.52;;
56752;SDS011;42627;42.646;23.642;2023-12-20T09:24:22;64.85;;;24.63;;
56752;SDS011;42627;42.646;23.642;2023-12-20T09:26:24;45.47;;;17.40;;
56752;SDS011;42627;42.646;23.642;2023-12-20T09:28:26;44.92;;;17.77;;
56752;SDS011;42627;42.646;23.642;2023-12-20T09:30:27;69.43;;;24.40;;
56752;SDS011;42627;42.646;23.642;2023-12-20T09:32:29;46.53;;;18.88;;
56752;SDS011;42627;42.646;23.642;2023-12-20T09:34:30;56.75;;;20.25;;
56752;SDS011;42627;42.646;23.642;2023-12-20T09:36:31;39.20;;;13.80;;
56752;SDS011;42627;42.646;23.642;2023-12-20T09:38:36;37.17;;;13.10;;
56752;SDS011;42627;42.646;23.642;2023-12-20T09:40:37;39.63;;;14.40;;
56752;SDS011;42627;42.646;23.642;2023-12-20T09:42:57;54.13;;;17.92;;
56752;SDS011;42627;42.646;23.642;2023-12-20T09:44:59;41.13;;;16.00;;
56752;SDS011;42627;42.646;23.642;2023-12-20T09:47:03;64.82;;;19.25;;
56752;SDS011;42627;42.646;23.642;2023-12-20T09:49:05;40.33;;;16.23;;
56752;SDS011;42627;42.646;23.642;2023-12-20T09:51:06;49.42;;;16.58;;
56752;SDS011;42627;42.646;23.642;2023-12-20T09:53:09;41.55;;;14.90;;
56752;SDS011;42627;42.646;23.642;2023-12-20T09:55:17;39.75;;;15.60;;
56752;SDS011;42627;42.646;23.642;2023-12-20T09:57:24;35.45;;;14.13;;
56752;SDS011;42627;42.646;23.642;2023-12-20T09:59:28;37.60;;;14.77;;
56752;SDS011;42627;42.646;23.642;2023-12-20T10:01:29;36.05;;;13.00;;
56752;SDS011;42627;42.646;23.642;2023-12-20T10:03:31;33.83;;;11.65;;
56752;SDS011;42627;42.646;23.642;2023-12-20T10:05:32;31.45;;;13.85;;
56752;SDS011;42627;42.646;23.642;2023-12-20T10:07:34;32.42;;;12.88;;
56752;SDS011;42627;42.646;23.642;2023-12-20T10:09:36;40.22;;;16.00;;
56752;SDS011;42627;42.646;23.642;2023-12-20T10:11:37;38.28;;;15.23;;
56752;SDS011;42627;42.646;23.642;2023-12-20T10:13:41;42.53;;;14.57;;
56752;SDS011;42627;42.646;23.642;2023-12-20T10:15:42;47.63;;;15.55;;
56752;SDS011;42627;42.646;23.642;2023-12-20T10:17:43;34.47;;;13.52;;
56752;SDS011;42627;42.646;23.642;2023-12-20T10:19:44;33.00;;;12.80;;
56752;SDS011;42627;42.646;23.642;2023-12-20T10:21:45;43.78;;;14.20;;
56752;SDS011;42627;42.646;23.642;2023-12-20T10:23:46;37.65;;;15.30;;
56752;SDS011;42627;42.646;23.642;2023-12-20T10:25:56;28.58;;;13.68;;
56752;SDS011;42627;42.646;23.642;2023-12-20T10:30:13;38.38;;;13.93;;
56752;SDS011;42627;42.646;23.642;2023-12-20T10:34:22;43.67;;;14.48;;
56752;SDS011;42627;42.646;23.642;2023-12-20T10:36:28;44.70;;;14.13;;
56752;SDS011;42627;42.646;23.642;2023-12-20T10:38:29;37.67;;;14.30;;
56752;SDS011;42627;42.646;23.642;2023-12-20T10:40:30;36.90;;;13.73;;
56752;SDS011;42627;42.646;23.642;2023-12-20T10:42:38;36.53;;;14.27;;
56752;SDS011;42627;42.646;23.642;2023-12-20T10:44:40;34.22;;;15.85;;
56752;SDS011;42627;42.646;23.642;2023-12-20T10:46:42;42.15;;;15.68;;
56752;SDS011;42627;42.646;23.642;2023-12-20T10:48:47;49.45;;;17.35;;
56752;SDS011;42627;42.646;23.642;2023-12-20T10:50:49;53.00;;;18.10;;
56752;SDS011;42627;42.646;23.642;2023-12-20T10:52:50;55.08;;;20.80;;
56752;SDS011;42627;42.646;23.642;2023-12-20T10:54:55;46.80;;;19.95;;
56752;SDS011;42627;42.646;23.642;2023-12-20T10:56:58;66.95;;;24.77;;
56752;SDS011;42627;42.646;23.642;2023-12-20T10:59:04;48.45;;;19.73;;
56752;SDS011;42627;42.646;23.642;2023-12-20T11:01:07;56.28;;;19.85;;
56752;SDS011;42627;42.646;23.642;2023-12-20T11:03:09;64.15;;;24.58;;
56752;SDS011;42627;42.646;23.642;2023-12-20T11:05:25;60.67;;;21.38;;
56752;SDS011;42627;42.646;23.642;2023-12-20T11:07:35;55.38;;;20.35;;
56752;SDS011;42627;42.646;23.642;2023-12-20T11:09:40;61.90;;;20.92;;
56752;SDS011;42627;42.646;23.642;2023-12-20T11:14:06;55.47;;;21.20;;
56752;SDS011;42627;42.646;23.642;2023-12-20T11:16:08;61.47;;;20.00;;
56752;SDS011;42627;42.646;23.642;2023-12-20T11:18:10;55.80;;;21.23;;
56752;SDS011;42627;42.646;23.642;2023-12-20T11:20:11;61.63;;;20.17;;
56752;SDS011;42627;42.646;23.642;2023-12-20T11:22:12;61.03;;;19.35;;
56752;SDS011;42627;42.646;23.642;2023-12-20T11:24:15;58.13;;;21.73;;
56752;SDS011;42627;42.646;23.642;2023-12-20T11:26:22;57.08;;;22.55;;
56752;SDS011;42627;42.646;23.642;2023-12-20T11:28:24;61.13;;;23.20;;
56752;SDS011;42627;42.646;23.642;2023-12-20T11:30:25;73.03;;;25.08;;
56752;SDS011;42627;42.646;23.642;2023-12-20T11:32:41;55.28;;;22.52;;
56752;SDS011;42627;42.646;23.642;2023-12-20T11:34:43;60.63;;;22.15;;
56752;SDS011;42627;42.646;23.642;2023-12-20T11:36:45;65.53;;;21.85;;
56752;SDS011;42627;42.646;23.642;2023-12-20T11:38:58;67.22;;;23.40;;
56752;SDS011;42627;42.646;23.642;2023-12-20T11:41:04;65.70;;;23.63;;
56752;SDS011;42627;42.646;23.642;2023-12-20T11:43:06;59.17;;;20.67;;
56752;SDS011;42627;42.646;23.642;2023-12-20T11:45:14;61.33;;;20.35;;
56752;SDS011;42627;42.646;23.642;2023-12-20T11:47:15;63.00;;;23.20;;
56752;SDS011;42627;42.646;23.642;2023-12-20T11:49:22;66.60;;;23.33;;
56752;SDS011;42627;42.646;23.642;2023-12-20T11:51:23;59.13;;;22.02;;
56752;SDS011;42627;42.646;23.642;2023-12-20T11:53:24;68.97;;;24.58;;
56752;SDS011;42627;42.646;23.642;2023-12-20T11:55:25;87.55;;;28.08;;
56752;SDS011;42627;42.646;23.642;2023-12-20T11:57:26;72.55;;;26.20;;
56752;SDS011;42627;42.646;23.642;2023-12-20T11:59:27;84.45;;;27.50;;
56752;SDS011;42627;42.646;23.642;2023-12-20T12:01:31;83.47;;;27.15;;
56752;SDS011;42627;42.646;23.642;2023-12-20T12:03:32;80.32;;;26.42;;
56752;SDS011;42627;42.646;23.642;2023-12-20T12:05:35;70.55;;;26.67;;
56752;SDS011;42627;42.646;23.642;2023-12-20T12:07:37;92.07;;;30.38;;
56752;SDS011;42627;42.646;23.642;2023-12-20T12:09:38;72.65;;;24.83;;
56752;SDS011;42627;42.646;23.642;2023-12-20T12:11:45;57.20;;;19.15;;
56752;SDS011;42627;42.646;23.642;2023-12-20T12:13:46;52.13;;;18.50;;
56752;SDS011;42627;42.646;23.642;2023-12-20T12:15:47;52.72;;;17.50;;
56752;SDS011;42627;42.646;23.642;2023-12-20T12:17:56;46.00;;;16.48;;